SBFZ/FOR METAR and TAF weather

Enter ICAO airport designator
Station Type Date Time Source
SBFZ METAR 2020/09/22 17:00 UTC NOAA

SBFZ 221700Z 08017KT 9999 SCT025 30/22 Q1013


Station Type Date Time Source
SBFZ Decoded METAR 2020/09/22 17:00 UTC NOAA

Fortaleza / pinto Martins , Brazil (SBFZ) 03-47S 038-32W 25M
Sep 22, 2020 - 01:00 PM EDT / 2020.09.22 1700 UTC
Wind: from the E (080 degrees) at 20 MPH (17 KT):0
Visibility: greater than 7 mile(s):0
Sky conditions: partly cloudy
Temperature: 86 F (30 C)
Heat index: 91.8 F (33.2 C):1
Dew Point: 71 F (22 C)
Relative Humidity: 62%
Pressure (altimeter): 29.91 in. Hg (1013 hPa)
ob: SBFZ 221700Z 08017KT 9999 SCT025 30/22 Q1013
cycle: 17

Station Type Date Time Source
SBFZ TAF 2020/09/22 18:39 UTC NOAA

TAF TAF SBFZ 221520Z 2218/2318 08017KT 9999 SCT025 TN24/2309Z TX31/2317Z
BECMG 2219/2221 06010KT FEW030
BECMG 2303/2305 10012KT SCT020
BECMG 2309/2311 12015KT BKN025
BECMG 2313/2315 08017KT SCT025
RMK PHN

Example: see airport list